Time;durP1;ratioP1;P1;durP2;ratioP2;P2;SDS_P1;SDS_P2;PMS_P1;PMS_P2;Temp;Humidity;BMP_temperature;BMP_pressure;BME280_temperature;BME280_humidity;BME280_pressure;Samples;Min_cycle;Max_cycle;Signal;HPM_P1;HPM_P2
2021/12/26 00:00:11;;;;;;;6.60;5.90;;;-7.70;99.90;;;;;;5033875;28;20632;-56
2021/12/26 00:02:40;;;;;;;6.47;5.60;;;-7.70;99.90;;;;;;5034318;28;20674;-56
2021/12/26 00:05:09;;;;;;;8.55;6.13;;;-7.70;99.90;;;;;;5033919;28;20218;-56
2021/12/26 00:07:36;;;;;;;8.63;6.07;;;-7.70;99.90;;;;;;5033865;28;20582;-56
2021/12/26 00:10:05;;;;;;;6.63;6.05;;;-7.70;99.90;;;;;;5033697;28;20202;-56
2021/12/26 00:12:32;;;;;;;6.60;5.63;;;-7.70;99.90;;;;;;5033581;28;20620;-56
2021/12/26 00:15:00;;;;;;;11.75;6.93;;;-7.70;99.90;;;;;;5033075;28;20233;-56
2021/12/26 00:17:27;;;;;;;8.75;6.65;;;-7.70;99.90;;;;;;5033380;28;20225;-56
2021/12/26 00:19:55;;;;;;;13.38;7.38;;;-7.70;99.90;;;;;;5033325;28;20202;-56
2021/12/26 00:22:22;;;;;;;8.20;6.28;;;-7.70;99.90;;;;;;5033040;28;20690;-56
2021/12/26 00:24:49;;;;;;;7.80;6.82;;;-7.70;99.90;;;;;;5035511;28;20233;-57
2021/12/26 00:27:18;;;;;;;5.75;5.22;;;-7.70;99.90;;;;;;5037586;28;20198;-57
2021/12/26 00:29:45;;;;;;;7.22;6.53;;;-7.80;99.90;;;;;;5038333;28;20202;-56
2021/12/26 00:32:13;;;;;;;7.97;6.03;;;-7.80;99.90;;;;;;5037603;28;20206;-56
2021/12/26 00:34:40;;;;;;;12.15;7.53;;;-7.80;99.90;;;;;;5038303;28;20234;-56
2021/12/26 00:37:09;;;;;;;11.70;7.10;;;-7.80;99.90;;;;;;5037515;28;20198;-56
2021/12/26 00:39:37;;;;;;;8.13;6.75;;;-7.80;99.90;;;;;;5037495;28;20237;-56
2021/12/26 00:42:04;;;;;;;8.43;7.05;;;-7.80;99.90;;;;;;5037136;28;20670;-57
2021/12/26 00:44:34;;;;;;;9.98;7.63;;;-7.80;99.90;;;;;;5037244;28;20593;-55
2021/12/26 00:47:01;;;;;;;8.60;6.70;;;-7.80;99.90;;;;;;5037035;28;20576;-55
2021/12/26 00:49:28;;;;;;;7.80;7.00;;;-7.80;99.90;;;;;;5036697;28;20209;-56
2021/12/26 00:51:55;;;;;;;10.07;7.28;;;-7.80;99.90;;;;;;5036480;28;20206;-56
2021/12/26 00:54:24;;;;;;;10.60;7.10;;;-7.80;99.90;;;;;;5036665;28;20230;-56
2021/12/26 00:56:51;;;;;;;6.30;5.57;;;-7.80;99.90;;;;;;5036771;28;20209;-56
2021/12/26 00:59:18;;;;;;;9.20;7.05;;;-7.80;99.90;;;;;;5036362;28;20712;-56
2021/12/26 01:01:45;;;;;;;12.75;7.55;;;-7.80;99.90;;;;;;5036735;28;20202;-56
2021/12/26 01:04:13;;;;;;;8.43;7.57;;;-7.90;99.90;;;;;;5036616;28;20230;-57
2021/12/26 01:06:40;;;;;;;15.05;7.53;;;-7.90;99.90;;;;;;5036341;28;20288;-57
2021/12/26 01:09:11;;;;;;;22.75;8.30;;;-7.90;99.90;;;;;;5036173;28;20199;-55
2021/12/26 01:11:46;;;;;;;9.35;7.20;;;-8.00;99.90;;;;;;5036331;28;20659;-56
2021/12/26 01:14:18;;;;;;;14.07;7.10;;;-8.00;99.90;;;;;;5036091;28;20608;-56
2021/12/26 01:16:48;;;;;;;7.38;6.25;;;-8.00;99.90;;;;;;5036163;28;20635;-56
2021/12/26 01:19:18;;;;;;;6.75;5.97;;;-8.00;99.90;;;;;;5036229;28;20675;-56
2021/12/26 01:21:46;;;;;;;11.32;7.05;;;-8.00;99.90;;;;;;5036425;28;20191;-56
2021/12/26 01:24:15;;;;;;;10.43;9.05;;;-8.00;99.90;;;;;;5036314;28;20258;-54
2021/12/26 01:26:43;;;;;;;9.02;6.85;;;-8.00;99.90;;;;;;5036285;28;20302;-56
2021/12/26 01:29:10;;;;;;;10.10;6.75;;;-8.00;99.90;;;;;;5036451;28;20202;-56
2021/12/26 01:31:37;;;;;;;11.90;7.40;;;-8.00;99.90;;;;;;5036016;28;20203;-56
2021/12/26 01:34:07;;;;;;;9.85;6.53;;;-8.00;99.90;;;;;;5036198;28;20222;-55
2021/12/26 01:36:36;;;;;;;10.00;6.75;;;-8.00;99.90;;;;;;5037330;28;20202;-57
2021/12/26 01:39:08;;;;;;;12.68;8.32;;;-8.10;99.90;;;;;;5040213;28;20218;-56
2021/12/26 01:41:39;;;;;;;9.20;6.85;;;-8.10;99.90;;;;;;5038236;28;20241;-56
2021/12/26 01:44:10;;;;;;;9.40;7.45;;;-8.10;99.90;;;;;;5040143;28;20222;-56
2021/12/26 01:46:38;;;;;;;11.23;6.35;;;-8.10;99.90;;;;;;5038101;28;20562;-56
2021/12/26 01:49:09;;;;;;;7.90;7.10;;;-8.10;99.90;;;;;;5037045;28;20210;-56
2021/12/26 01:51:36;;;;;;;7.90;6.72;;;-8.10;99.90;;;;;;5036014;28;20560;-56
2021/12/26 01:54:08;;;;;;;8.98;7.45;;;-8.10;99.90;;;;;;5035590;28;20731;-56
2021/12/26 01:56:36;;;;;;;8.13;6.80;;;-8.20;99.90;;;;;;5035841;28;20657;-54
2021/12/26 01:59:05;;;;;;;12.07;7.38;;;-8.10;99.90;;;;;;5035712;28;20214;-55
2021/12/26 02:01:33;;;;;;;7.65;6.63;;;-8.10;99.90;;;;;;5035707;28;20206;-55
2021/12/26 02:04:01;;;;;;;10.48;7.53;;;-8.20;99.90;;;;;;5035259;28;20218;-56
2021/12/26 02:06:28;;;;;;;9.88;6.97;;;-8.20;99.90;;;;;;5035314;28;20206;-56
2021/12/26 02:08:56;;;;;;;9.10;7.90;;;-8.20;99.90;;;;;;5035557;28;20559;-56
2021/12/26 02:11:23;;;;;;;9.95;7.45;;;-8.20;99.90;;;;;;5035445;28;20217;-56
2021/12/26 02:13:50;;;;;;;8.32;6.68;;;-8.20;99.90;;;;;;5035279;28;20237;-57
2021/12/26 02:16:17;;;;;;;9.60;7.60;;;-8.20;99.90;;;;;;5035308;28;20206;-55
2021/12/26 02:18:45;;;;;;;8.13;7.40;;;-8.20;99.90;;;;;;5035416;28;20251;-55
2021/12/26 02:21:26;;;;;;;8.55;6.57;;;-8.30;99.90;;;;;;5035409;28;20210;-56
2021/12/26 02:23:59;;;;;;;8.43;7.00;;;-8.30;99.90;;;;;;5034737;28;20728;-56
2021/12/26 02:29:10;;;;;;;7.68;6.22;;;-8.30;99.90;;;;;;5035239;28;20252;-54
2021/12/26 02:31:38;;;;;;;10.85;7.60;;;-8.40;99.90;;;;;;5035034;28;20214;-56
2021/12/26 02:34:05;;;;;;;9.05;7.38;;;-8.40;99.90;;;;;;5035063;28;20610;-56
2021/12/26 02:36:34;;;;;;;12.57;7.72;;;-8.40;99.90;;;;;;5034696;28;20694;-56
2021/12/26 02:39:01;;;;;;;9.80;8.13;;;-8.40;99.90;;;;;;5034622;28;20574;-56
2021/12/26 02:41:28;;;;;;;10.13;7.50;;;-8.40;99.90;;;;;;5034822;28;20212;-56
2021/12/26 02:43:55;;;;;;;7.57;6.82;;;-8.40;99.90;;;;;;5034759;28;20228;-56
2021/12/26 02:46:22;;;;;;;7.60;6.78;;;-8.40;99.90;;;;;;5034599;28;20667;-56
2021/12/26 02:48:49;;;;;;;10.75;6.95;;;-8.40;99.90;;;;;;5033663;28;20213;-55
2021/12/26 02:51:16;;;;;;;9.85;7.15;;;-8.40;99.90;;;;;;5034770;28;20203;-55
2021/12/26 02:53:46;;;;;;;8.20;7.32;;;-8.40;99.90;;;;;;5034095;28;20226;-55
2021/12/26 02:56:14;;;;;;;9.52;8.05;;;-8.50;99.90;;;;;;5034408;28;20669;-55
2021/12/26 02:58:41;;;;;;;11.98;8.30;;;-8.50;99.90;;;;;;5034479;28;20206;-55
2021/12/26 03:01:11;;;;;;;8.68;7.43;;;-8.50;99.90;;;;;;5034540;28;20207;-55
2021/12/26 03:03:38;;;;;;;9.90;7.55;;;-8.50;99.90;;;;;;5035741;28;20222;-55
2021/12/26 03:06:12;;;;;;;12.30;7.97;;;-8.50;99.90;;;;;;5034557;28;20209;-56
2021/12/26 03:08:40;;;;;;;9.70;8.07;;;-8.50;99.90;;;;;;5034676;28;20183;-55
2021/12/26 03:11:09;;;;;;;8.80;7.60;;;-8.60;99.90;;;;;;5034023;28;20667;-55
2021/12/26 03:13:36;;;;;;;12.05;7.82;;;-8.60;99.90;;;;;;5033911;28;20225;-56
2021/12/26 03:16:04;;;;;;;13.63;7.80;;;-8.60;99.90;;;;;;5033802;28;20229;-55
2021/12/26 03:18:31;;;;;;;10.55;7.22;;;-8.60;99.90;;;;;;5034098;28;20207;-55
2021/12/26 03:20:58;;;;;;;9.60;6.40;;;-8.60;99.90;;;;;;5034164;28;20202;-56
2021/12/26 03:23:27;;;;;;;13.63;7.72;;;-8.50;99.90;;;;;;5033861;28;20222;-55
2021/12/26 03:25:56;;;;;;;10.75;7.10;;;-8.60;99.90;;;;;;5034090;28;20205;-54
2021/12/26 03:28:25;;;;;;;7.88;7.07;;;-8.60;99.90;;;;;;5034088;28;20233;-55
2021/12/26 03:30:53;;;;;;;8.00;6.70;;;-8.60;99.90;;;;;;5033651;28;20213;-55
2021/12/26 03:33:21;;;;;;;9.10;6.63;;;-8.60;99.90;;;;;;5033780;28;20207;-55
2021/12/26 03:35:48;;;;;;;11.02;7.43;;;-8.60;99.90;;;;;;5033785;28;20225;-56
2021/12/26 03:38:17;;;;;;;10.80;7.43;;;-8.60;99.90;;;;;;5033473;28;20207;-55
2021/12/26 03:40:45;;;;;;;10.95;7.00;;;-8.60;99.90;;;;;;5033827;28;20206;-55
2021/12/26 03:43:12;;;;;;;10.23;7.80;;;-8.60;99.90;;;;;;5033360;28;20210;-55
2021/12/26 03:45:41;;;;;;;7.88;6.32;;;-8.60;99.90;;;;;;5033420;28;20198;-54
2021/12/26 03:48:08;;;;;;;9.95;7.45;;;-8.60;99.90;;;;;;5033679;28;20207;-55
2021/12/26 03:50:39;;;;;;;10.05;8.18;;;-8.60;99.90;;;;;;5033507;28;20233;-55
2021/12/26 03:53:06;;;;;;;11.80;7.88;;;-8.60;99.90;;;;;;5033481;28;20281;-56
2021/12/26 03:55:33;;;;;;;9.00;7.53;;;-8.60;99.90;;;;;;5033415;28;20321;-55
2021/12/26 03:58:01;;;;;;;13.27;7.60;;;-8.60;99.90;;;;;;5033258;28;20206;-54
2021/12/26 04:00:29;;;;;;;9.13;8.20;;;-8.60;99.90;;;;;;5033400;28;20207;-55
2021/12/26 04:02:58;;;;;;;11.52;6.95;;;-8.60;99.90;;;;;;5033428;28;20736;-55
2021/12/26 04:05:25;;;;;;;9.38;7.60;;;-8.60;99.90;;;;;;5033300;28;20223;-55
2021/12/26 04:09:07;;;;;;;9.45;8.20;;;-8.70;99.90;;;;;;5106194;27;1414243;-55
2021/12/26 04:11:35;;;;;;;11.68;8.32;;;-8.70;99.90;;;;;;5132076;28;20226;-55
2021/12/26 04:14:02;;;;;;;13.45;8.82;;;-8.70;99.90;;;;;;5123397;28;20312;-56
2021/12/26 04:16:30;;;;;;;9.00;7.68;;;-8.70;99.90;;;;;;5110940;28;20210;-55
2021/12/26 04:18:57;;;;;;;12.40;7.80;;;-8.70;99.90;;;;;;5110888;28;20203;-55
2021/12/26 04:21:24;;;;;;;12.05;8.18;;;-8.70;99.90;;;;;;5117637;22;20224;-51
2021/12/26 04:23:51;;;;;;;8.93;8.05;;;-8.70;99.90;;;;;;5090470;28;20200;-52
2021/12/26 04:26:19;;;;;;;7.88;6.40;;;-8.70;99.90;;;;;;5090435;28;20200;-53
2021/12/26 04:28:46;;;;;;;8.60;7.70;;;-8.70;99.90;;;;;;5090389;28;20220;-53
2021/12/26 04:31:15;;;;;;;10.48;8.20;;;-8.70;99.90;;;;;;5106124;28;20220;-52
2021/12/26 04:33:43;;;;;;;11.60;8.27;;;-8.70;99.90;;;;;;5110927;28;20264;-52
2021/12/26 04:36:10;;;;;;;8.65;7.47;;;-8.70;99.90;;;;;;5110415;28;20675;-53
2021/12/26 04:38:37;;;;;;;10.50;7.45;;;-8.70;99.90;;;;;;5110286;28;20580;-52
2021/12/26 04:41:05;;;;;;;12.18;8.13;;;-8.80;99.90;;;;;;5110606;28;20224;-53
2021/12/26 04:43:36;;;;;;;12.02;8.27;;;-8.80;99.90;;;;;;5110403;28;20204;-53
2021/12/26 04:46:05;;;;;;;10.52;7.95;;;-8.80;99.90;;;;;;5110468;28;20192;-52
2021/12/26 04:48:32;;;;;;;11.70;7.85;;;-8.80;99.90;;;;;;5110259;28;20314;-52
2021/12/26 04:51:00;;;;;;;8.82;7.50;;;-8.80;99.90;;;;;;5110574;28;20224;-52
2021/12/26 04:53:28;;;;;;;13.00;7.80;;;-8.80;99.90;;;;;;5110528;28;20196;-53
2021/12/26 04:55:55;;;;;;;8.45;6.68;;;-8.80;99.90;;;;;;5110537;28;20215;-52
2021/12/26 04:58:22;;;;;;;12.45;6.95;;;-8.80;99.90;;;;;;5110682;28;20200;-52
2021/12/26 05:00:51;;;;;;;9.95;8.23;;;-8.80;99.90;;;;;;5109995;28;20253;-50
2021/12/26 05:03:19;;;;;;;11.77;7.50;;;-8.80;99.90;;;;;;5110144;28;20196;-52
2021/12/26 05:05:46;;;;;;;8.60;7.78;;;-8.80;99.90;;;;;;5109880;28;20200;-53
2021/12/26 05:08:13;;;;;;;10.00;8.52;;;-8.80;99.90;;;;;;5109803;28;20246;-52
2021/12/26 05:10:41;;;;;;;9.18;6.55;;;-8.90;99.90;;;;;;5109997;28;20219;-53
2021/12/26 05:13:09;;;;;;;8.93;6.75;;;-8.90;99.90;;;;;;5109771;28;20203;-51
2021/12/26 05:15:37;;;;;;;8.13;6.40;;;-8.90;99.90;;;;;;5109698;28;20196;-50
2021/12/26 05:18:06;;;;;;;9.43;7.88;;;-8.90;99.90;;;;;;5109715;28;20249;-51
2021/12/26 05:20:33;;;;;;;10.75;6.65;;;-8.90;99.90;;;;;;5095437;28;20235;-51
2021/12/26 05:23:01;;;;;;;6.38;5.75;;;-8.90;99.90;;;;;;5096228;28;20213;-51
2021/12/26 05:25:28;;;;;;;7.72;7.00;;;-8.90;99.90;;;;;;5095958;28;20208;-51
2021/12/26 05:27:56;;;;;;;8.45;7.38;;;-8.90;99.90;;;;;;5095909;28;20299;-52
2021/12/26 05:30:25;;;;;;;12.75;7.65;;;-8.90;99.90;;;;;;5096069;28;20231;-52
2021/12/26 05:32:52;;;;;;;10.60;6.90;;;-9.00;99.90;;;;;;5096229;28;20216;-51
2021/12/26 05:35:21;;;;;;;8.98;7.65;;;-9.00;99.90;;;;;;5095652;28;20203;-51
2021/12/26 05:37:48;;;;;;;7.28;6.53;;;-9.00;99.90;;;;;;5096441;28;20197;-50
2021/12/26 05:40:16;;;;;;;10.38;8.00;;;-9.00;99.90;;;;;;5095571;28;20228;-51
2021/12/26 05:42:44;;;;;;;8.70;6.13;;;-9.00;99.90;;;;;;5095886;28;20201;-51
2021/12/26 05:45:12;;;;;;;8.00;6.60;;;-9.00;99.90;;;;;;5095764;28;20208;-51
2021/12/26 05:47:39;;;;;;;7.75;6.57;;;-9.00;99.90;;;;;;5095644;28;20212;-52
2021/12/26 05:50:09;;;;;;;7.20;6.40;;;-9.10;99.90;;;;;;5095559;28;20249;-52
2021/12/26 05:52:37;;;;;;;10.88;6.15;;;-9.10;99.90;;;;;;5095393;28;20290;-52
2021/12/26 05:55:05;;;;;;;8.70;6.50;;;-9.10;99.90;;;;;;5095575;28;20212;-51
2021/12/26 05:57:32;;;;;;;9.82;6.88;;;-9.10;99.90;;;;;;5095566;28;20196;-51
2021/12/26 06:00:00;;;;;;;12.98;7.60;;;-9.10;99.90;;;;;;5095456;28;20224;-52
2021/12/26 06:02:27;;;;;;;7.72;6.50;;;-9.10;99.90;;;;;;5095099;28;20672;-52
2021/12/26 06:04:54;;;;;;;9.05;6.90;;;-9.10;99.90;;;;;;5095083;28;20204;-51
2021/12/26 06:07:21;;;;;;;9.73;7.57;;;-9.00;99.90;;;;;;5095237;28;20207;-52
2021/12/26 06:09:49;;;;;;;8.30;6.60;;;-9.00;99.90;;;;;;5095239;28;20235;-52
2021/12/26 06:12:16;;;;;;;7.70;6.78;;;-9.00;99.90;;;;;;5094904;28;20207;-51
2021/12/26 06:14:44;;;;;;;11.90;7.63;;;-9.00;99.90;;;;;;5095152;28;20289;-52
2021/12/26 06:17:11;;;;;;;9.15;7.45;;;-9.00;99.90;;;;;;5095506;28;20204;-51
2021/12/26 06:19:38;;;;;;;8.40;6.85;;;-9.00;99.90;;;;;;5094829;28;20200;-52
2021/12/26 06:22:06;;;;;;;9.30;8.13;;;-9.00;99.90;;;;;;5095102;28;20201;-50
2021/12/26 06:24:33;;;;;;;12.50;8.30;;;-9.00;99.90;;;;;;5094665;28;20200;-52
2021/12/26 06:27:02;;;;;;;13.07;7.22;;;-9.00;99.90;;;;;;5094974;28;20208;-52
2021/12/26 06:29:29;;;;;;;10.68;7.10;;;-9.00;99.90;;;;;;5094432;28;20221;-51
2021/12/26 06:31:56;;;;;;;11.75;7.43;;;-9.00;99.90;;;;;;5093621;28;20219;-52
2021/12/26 06:34:23;;;;;;;11.38;7.55;;;-9.00;99.90;;;;;;5094563;28;20201;-50
2021/12/26 06:36:50;;;;;;;9.95;8.10;;;-9.00;99.90;;;;;;5094836;28;20200;-51
2021/12/26 06:39:18;;;;;;;12.00;8.02;;;-9.00;99.90;;;;;;5094777;28;20201;-52
2021/12/26 06:41:45;;;;;;;12.15;8.73;;;-9.00;99.90;;;;;;5094751;28;20316;-52
2021/12/26 06:44:13;;;;;;;14.02;8.38;;;-9.00;99.90;;;;;;5094566;28;20226;-52
2021/12/26 06:46:41;;;;;;;12.98;8.52;;;-9.00;99.90;;;;;;5094298;28;20204;-51
2021/12/26 06:49:08;;;;;;;10.48;7.50;;;-9.00;99.90;;;;;;5094584;28;20314;-52
2021/12/26 06:51:35;;;;;;;11.88;8.35;;;-9.00;99.90;;;;;;5094458;28;20248;-51
2021/12/26 06:54:03;;;;;;;10.20;8.02;;;-9.00;99.90;;;;;;5095269;28;20196;-52
2021/12/26 06:56:30;;;;;;;12.32;8.18;;;-9.00;99.90;;;;;;5095527;28;20223;-51
2021/12/26 06:58:57;;;;;;;11.70;8.07;;;-9.00;99.90;;;;;;5094511;28;20200;-51
2021/12/26 07:01:26;;;;;;;11.05;7.95;;;-9.00;99.90;;;;;;5094012;28;20216;-51
2021/12/26 07:03:54;;;;;;;12.07;7.57;;;-9.00;99.90;;;;;;5095156;28;20211;-52
2021/12/26 07:06:21;;;;;;;13.35;7.95;;;-9.00;99.90;;;;;;5095099;28;20568;-52
2021/12/26 07:08:48;;;;;;;11.60;8.40;;;-9.00;99.90;;;;;;5094294;28;20213;-51
2021/12/26 07:11:16;;;;;;;15.23;8.82;;;-9.00;99.90;;;;;;5093741;28;20704;-51
2021/12/26 07:13:43;;;;;;;13.52;9.07;;;-9.00;99.90;;;;;;5094079;28;20200;-52
2021/12/26 07:16:10;;;;;;;12.68;7.95;;;-9.00;99.90;;;;;;5093708;28;20200;-51
2021/12/26 07:18:38;;;;;;;13.98;7.68;;;-9.00;99.90;;;;;;5093685;28;20704;-51
2021/12/26 07:21:05;;;;;;;11.38;8.90;;;-9.00;99.90;;;;;;5093558;28;20380;-51
2021/12/26 07:23:32;;;;;;;12.50;8.40;;;-9.00;99.90;;;;;;5093630;28;20668;-51
2021/12/26 07:26:00;;;;;;;13.10;8.18;;;-9.00;99.90;;;;;;5093585;28;20204;-51
2021/12/26 07:28:27;;;;;;;10.63;8.30;;;-9.00;99.90;;;;;;5093384;28;20223;-51
2021/12/26 07:30:54;;;;;;;8.48;7.50;;;-9.00;99.90;;;;;;5093364;28;20216;-51
2021/12/26 07:33:22;;;;;;;10.75;9.13;;;-9.00;99.90;;;;;;5093485;28;20208;-51
2021/12/26 07:35:50;;;;;;;8.77;7.45;;;-9.10;99.90;;;;;;5093829;28;20580;-51
2021/12/26 07:38:18;;;;;;;11.25;8.13;;;-9.10;99.90;;;;;;5093757;28;20223;-51
2021/12/26 07:40:45;;;;;;;10.48;7.45;;;-9.10;99.90;;;;;;5093814;28;20256;-50
2021/12/26 07:43:13;;;;;;;14.80;7.97;;;-9.00;99.90;;;;;;5093321;28;20200;-51
2021/12/26 07:45:40;;;;;;;7.55;6.75;;;-9.00;99.90;;;;;;5093878;28;20223;-51
2021/12/26 07:48:07;;;;;;;13.93;7.57;;;-9.00;99.90;;;;;;5094006;28;20227;-51
2021/12/26 07:50:34;;;;;;;11.20;8.68;;;-8.90;99.90;;;;;;5093027;28;20217;-52
2021/12/26 07:53:07;;;;;;;12.25;8.13;;;-8.90;99.90;;;;;;5093392;28;20204;-51
2021/12/26 07:55:34;;;;;;;11.40;7.63;;;-8.90;99.90;;;;;;5093122;28;20195;-51
2021/12/26 07:58:01;;;;;;;12.50;8.88;;;-8.90;99.90;;;;;;5093340;28;20671;-51
2021/12/26 08:00:28;;;;;;;15.82;8.60;;;-8.90;99.90;;;;;;5093174;28;20703;-51
2021/12/26 08:02:56;;;;;;;11.00;7.90;;;-8.80;99.90;;;;;;5093135;28;20200;-51
2021/12/26 08:05:24;;;;;;;14.73;8.23;;;-8.80;99.90;;;;;;5093350;28;20204;-51
2021/12/26 08:07:51;;;;;;;21.30;8.52;;;-8.80;99.90;;;;;;5093170;28;20219;-51
2021/12/26 08:10:19;;;;;;;9.77;8.23;;;-8.80;99.90;;;;;;5094015;28;20243;-52
2021/12/26 08:12:46;;;;;;;9.57;6.20;;;-8.70;99.90;;;;;;5092903;28;20207;-51
2021/12/26 08:15:13;;;;;;;11.55;7.10;;;-8.70;99.90;;;;;;5093174;28;20204;-51
2021/12/26 08:17:41;;;;;;;9.63;6.25;;;-8.70;99.90;;;;;;5093149;28;20201;-51
2021/12/26 08:20:09;;;;;;;8.40;6.53;;;-8.70;99.90;;;;;;5092879;28;20231;-51
2021/12/26 08:22:37;;;;;;;12.30;7.57;;;-8.60;99.90;;;;;;5093193;28;20215;-51
2021/12/26 08:25:05;;;;;;;15.82;9.63;;;-8.60;99.90;;;;;;5092935;28;20200;-51
2021/12/26 08:27:34;;;;;;;8.45;7.53;;;-8.50;99.90;;;;;;5092805;28;20569;-52
2021/12/26 08:30:01;;;;;;;10.15;7.82;;;-8.40;99.90;;;;;;5093232;28;20238;-51
2021/12/26 08:32:31;;;;;;;13.50;7.72;;;-8.40;99.90;;;;;;5092630;28;20211;-51
2021/12/26 08:34:59;;;;;;;10.30;7.20;;;-8.40;99.90;;;;;;5092793;28;20200;-51
2021/12/26 08:37:27;;;;;;;12.15;7.72;;;-8.30;99.90;;;;;;5093012;28;20201;-52
2021/12/26 08:39:54;;;;;;;10.57;7.95;;;-8.30;99.90;;;;;;5092897;28;20227;-52
2021/12/26 08:42:22;;;;;;;11.85;8.30;;;-8.20;99.90;;;;;;5092580;28;20683;-51
2021/12/26 08:44:52;;;;;;;13.30;8.35;;;-8.20;99.90;;;;;;5093077;28;20200;-51
2021/12/26 08:47:19;;;;;;;11.07;7.90;;;-8.20;99.90;;;;;;5093347;28;20196;-50
2021/12/26 08:49:46;;;;;;;16.33;8.27;;;-8.10;99.90;;;;;;5092481;28;20306;-51
2021/12/26 08:52:14;;;;;;;9.40;7.97;;;-8.10;99.90;;;;;;5092548;28;20204;-51
2021/12/26 08:54:41;;;;;;;18.20;8.80;;;-8.00;99.90;;;;;;5094569;28;20204;-51
2021/12/26 08:57:09;;;;;;;11.10;8.00;;;-7.90;99.90;;;;;;5096551;28;20223;-51
2021/12/26 08:59:37;;;;;;;14.45;7.85;;;-7.90;99.90;;;;;;5096346;28;20254;-51
2021/12/26 09:02:07;;;;;;;12.55;8.68;;;-7.80;99.90;;;;;;5096388;28;20204;-51
2021/12/26 09:04:35;;;;;;;12.20;8.00;;;-7.70;99.90;;;;;;5096456;28;20294;-51
2021/12/26 09:07:04;;;;;;;11.75;8.40;;;-7.70;99.90;;;;;;5096284;28;20200;-52
2021/12/26 09:09:31;;;;;;;10.50;7.88;;;-7.60;99.90;;;;;;5095973;28;20212;-51
2021/12/26 09:11:58;;;;;;;10.23;8.15;;;-7.50;99.90;;;;;;5096262;28;20204;-51
2021/12/26 09:14:28;;;;;;;11.23;7.90;;;-7.50;99.90;;;;;;5096046;28;20203;-51
2021/12/26 09:16:55;;;;;;;10.18;7.43;;;-7.40;99.90;;;;;;5096309;28;20687;-51
2021/12/26 09:19:27;;;;;;;12.45;7.93;;;-7.40;99.90;;;;;;5096596;28;20197;-51
2021/12/26 09:21:55;;;;;;;13.20;8.25;;;-7.30;99.90;;;;;;5095999;28;20282;-52
2021/12/26 09:24:22;;;;;;;12.82;9.13;;;-7.20;99.90;;;;;;5096070;28;20203;-47
2021/12/26 09:26:49;;;;;;;11.35;8.60;;;-7.20;99.90;;;;;;5096788;28;20200;-51
2021/12/26 09:29:16;;;;;;;13.30;9.27;;;-7.10;99.90;;;;;;5096870;28;20224;-52
2021/12/26 09:31:43;;;;;;;14.95;10.00;;;-7.00;99.90;;;;;;5096327;28;20220;-52
2021/12/26 09:34:11;;;;;;;12.25;8.00;;;-7.00;99.90;;;;;;5095926;28;20200;-52
2021/12/26 09:36:39;;;;;;;10.98;8.13;;;-6.90;99.90;;;;;;5096223;28;20223;-52
2021/12/26 09:39:06;;;;;;;10.63;8.13;;;-6.80;99.90;;;;;;5095730;28;20204;-52
2021/12/26 09:41:34;;;;;;;13.98;9.10;;;-6.70;99.90;;;;;;5095869;28;20686;-52
2021/12/26 09:44:01;;;;;;;10.45;8.15;;;-6.60;99.90;;;;;;5096150;28;20573;-52
2021/12/26 09:46:29;;;;;;;12.35;8.25;;;-6.60;99.90;;;;;;5096230;28;20346;-53
2021/12/26 09:48:56;;;;;;;9.02;7.22;;;-6.50;99.90;;;;;;5095385;28;20255;-53
2021/12/26 09:51:23;;;;;;;11.25;8.40;;;-6.40;99.90;;;;;;5095724;28;20224;-53
2021/12/26 09:53:52;;;;;;;14.93;9.07;;;-6.40;99.90;;;;;;5095717;28;20196;-52
2021/12/26 09:56:20;;;;;;;20.20;10.10;;;-6.30;99.90;;;;;;5095300;28;20200;-53
2021/12/26 09:58:56;;;;;;;14.07;9.00;;;-6.20;99.90;;;;;;5095553;28;20250;-52
2021/12/26 10:01:31;;;;;;;11.48;8.43;;;-6.10;99.90;;;;;;5095629;28;20225;-52
2021/12/26 10:04:01;;;;;;;13.18;8.80;;;-6.00;99.90;;;;;;5095738;28;20220;-51
2021/12/26 10:06:33;;;;;;;14.45;10.27;;;-5.90;99.90;;;;;;5095077;28;20211;-52
2021/12/26 10:09:04;;;;;;;14.85;9.07;;;-5.90;99.90;;;;;;5095529;28;20208;-52
2021/12/26 10:11:33;;;;;;;11.30;7.80;;;-5.80;99.90;;;;;;5095139;28;20727;-52
2021/12/26 10:14:03;;;;;;;16.20;9.70;;;-5.70;99.90;;;;;;5095063;28;20725;-52
2021/12/26 10:16:31;;;;;;;13.23;9.88;;;-5.70;99.90;;;;;;5095537;28;20223;-52
2021/12/26 10:19:00;;;;;;;12.10;8.45;;;-5.60;99.90;;;;;;5096018;28;20566;-52
2021/12/26 10:21:33;;;;;;;13.88;9.73;;;-5.50;99.90;;;;;;5099049;22;20233;-56
2021/12/26 10:24:06;;;;;;;14.70;10.20;;;-5.50;99.90;;;;;;5076098;28;20185;-56
2021/12/26 10:26:35;;;;;;;15.30;10.48;;;-5.40;99.90;;;;;;5076032;28;20672;-56
2021/12/26 10:29:25;;;;;;;17.17;10.50;;;-5.30;99.90;;;;;;5077093;28;20225;-56
2021/12/26 10:31:59;;;;;;;19.58;10.13;;;-5.20;99.90;;;;;;5093549;28;20225;-56
2021/12/26 10:34:29;;;;;;;15.68;10.23;;;-5.10;99.90;;;;;;5096853;28;20574;-55
2021/12/26 10:36:58;;;;;;;12.60;9.80;;;-5.00;99.90;;;;;;5097230;28;20621;-56
2021/12/26 10:39:28;;;;;;;13.38;10.32;;;-4.90;99.90;;;;;;5096046;28;20200;-56
2021/12/26 10:41:58;;;;;;;15.32;11.02;;;-4.80;99.90;;;;;;5095638;28;20227;-56
2021/12/26 10:44:32;;;;;;;16.42;9.77;;;-4.70;99.90;;;;;;5096355;28;20680;-56
2021/12/26 10:47:04;;;;;;;14.98;10.20;;;-4.60;99.90;;;;;;5094989;28;20580;-55
2021/12/26 10:49:35;;;;;;;18.85;11.32;;;-4.50;99.90;;;;;;5095001;28;20236;-56
2021/12/26 10:52:02;;;;;;;14.80;10.50;;;-4.40;99.90;;;;;;5095598;28;20224;-56
2021/12/26 10:54:32;;;;;;;13.80;10.60;;;-4.40;99.90;;;;;;5094792;28;20564;-55
2021/12/26 10:57:11;;;;;;;16.55;9.70;;;-4.30;99.90;;;;;;5094615;28;20203;-56
2021/12/26 10:59:42;;;;;;;17.27;11.70;;;-4.20;99.90;;;;;;5097463;28;20644;-55
2021/12/26 11:02:09;;;;;;;16.77;10.00;;;-4.10;99.90;;;;;;5097187;28;20227;-55
2021/12/26 11:04:38;;;;;;;14.90;10.32;;;-4.00;99.90;;;;;;5095374;28;20668;-56
2021/12/26 11:07:09;;;;;;;12.90;10.43;;;-4.00;99.90;;;;;;5097385;28;20200;-56
2021/12/26 11:09:38;;;;;;;17.02;10.75;;;-3.90;99.90;;;;;;5095013;28;20618;-55
2021/12/26 11:12:07;;;;;;;17.33;11.32;;;-3.90;99.90;;;;;;5094706;28;20572;-55
2021/12/26 11:14:56;;;;;;;19.15;11.35;;;-3.80;99.90;;;;;;5095500;28;20200;-55
2021/12/26 11:17:33;;;;;;;15.43;11.20;;;-3.70;99.90;;;;;;5094209;28;20204;-55
2021/12/26 11:20:01;;;;;;;17.17;10.90;;;-3.70;99.90;;;;;;5096041;28;20181;-56
2021/12/26 11:22:28;;;;;;;20.67;11.10;;;-3.70;99.90;;;;;;5095487;28;20197;-55
2021/12/26 11:24:58;;;;;;;16.42;11.50;;;-3.60;99.90;;;;;;5094903;28;20200;-56
2021/12/26 11:27:26;;;;;;;16.88;11.05;;;-3.60;99.90;;;;;;5094180;28;20203;-55
2021/12/26 11:29:53;;;;;;;20.42;11.23;;;-3.50;99.90;;;;;;5093818;28;20216;-57
2021/12/26 11:32:23;;;;;;;14.05;9.95;;;-3.50;99.90;;;;;;5094172;28;20207;-56
2021/12/26 11:34:51;;;;;;;20.13;11.30;;;-3.40;99.90;;;;;;5095114;28;20201;-56
2021/12/26 11:37:19;;;;;;;15.63;10.25;;;-3.30;99.90;;;;;;5093894;28;20548;-56
2021/12/26 11:39:46;;;;;;;16.58;10.98;;;-3.30;99.90;;;;;;5093584;28;20527;-56
2021/12/26 11:42:45;;;;;;;14.77;10.82;;;-3.30;99.90;;;;;;5093596;28;20298;-57
2021/12/26 11:45:22;;;;;;;16.63;9.60;;;-3.20;99.90;;;;;;5094817;28;20210;-55
2021/12/26 11:48:27;;;;;;;11.95;9.43;;;-3.20;99.90;;;;;;5094437;28;20188;-56
2021/12/26 11:51:06;;;;;;;13.60;10.05;;;-3.10;99.90;;;;;;5093506;28;20227;-56
2021/12/26 11:53:47;;;;;;;18.75;10.82;;;-3.10;99.90;;;;;;5093749;28;20207;-56
2021/12/26 11:56:21;;;;;;;13.70;9.80;;;-3.10;99.90;;;;;;5093782;28;20248;-56
2021/12/26 11:59:13;;;;;;;14.45;9.75;;;-3.00;99.90;;;;;;5093947;28;20212;-55
2021/12/26 12:01:44;;;;;;;15.98;9.50;;;-2.90;99.90;;;;;;5094339;28;20715;-56
2021/12/26 12:04:15;;;;;;;17.33;10.43;;;-2.90;99.90;;;;;;5095603;28;20299;-57
2021/12/26 12:06:42;;;;;;;15.23;10.88;;;-2.90;99.90;;;;;;5094317;28;20188;-57
2021/12/26 12:09:31;;;;;;;15.05;11.57;;;-2.90;99.90;;;;;;5093842;28;20205;-56
2021/12/26 12:12:04;;;;;;;12.70;8.80;;;-2.80;99.90;;;;;;5093147;28;20590;-57
2021/12/26 12:14:55;;;;;;;13.13;10.02;;;-2.80;99.90;;;;;;5093341;28;20656;-56
2021/12/26 12:17:26;;;;;;;20.55;11.98;;;-2.70;99.90;;;;;;5093424;28;20231;-57
2021/12/26 12:20:11;;;;;;;12.70;10.52;;;-2.70;99.90;;;;;;5093409;28;20567;-57
2021/12/26 12:23:00;;;;;;;19.38;10.55;;;-2.70;99.90;;;;;;5093356;28;20565;-56
2021/12/26 12:25:40;;;;;;;18.90;11.63;;;-2.70;99.90;;;;;;5092857;28;20205;-56
2021/12/26 12:28:10;;;;;;;17.30;11.23;;;-2.70;99.90;;;;;;5093143;28;20200;-56
2021/12/26 12:30:40;;;;;;;16.65;10.85;;;-2.60;99.90;;;;;;5096813;28;20231;-56
2021/12/26 12:33:21;;;;;;;16.13;10.82;;;-2.60;99.90;;;;;;5097448;28;20204;-55
2021/12/26 12:35:54;;;;;;;15.07;11.07;;;-2.60;99.90;;;;;;5097744;28;20184;-56
2021/12/26 12:38:30;;;;;;;14.65;11.70;;;-2.60;99.90;;;;;;5098338;28;20184;-54
2021/12/26 12:40:58;;;;;;;15.30;10.73;;;-2.60;99.90;;;;;;5097623;28;20586;-57
2021/12/26 12:43:27;;;;;;;14.35;9.73;;;-2.50;99.90;;;;;;5097086;28;20214;-57
2021/12/26 12:46:09;;;;;;;20.42;10.23;;;-2.50;99.90;;;;;;5097229;28;20200;-56
2021/12/26 12:48:40;;;;;;;15.75;10.40;;;-2.50;99.90;;;;;;5096991;28;20234;-56
2021/12/26 12:51:31;;;;;;;19.65;11.45;;;-2.60;99.90;;;;;;5097186;28;20224;-55